sensor_id;sensor_type;location;lat;lon;timestamp;pressure;altitude;pressure_sealevel;temperature;humidity
64711;BME280;51139;45.626;6.850;2024-01-11T08:01:34;81962.41;;;-2.31;71.55
64711;BME280;51139;45.626;6.850;2024-01-11T08:04:01;81957.88;;;-1.35;68.73
64711;BME280;51139;45.626;6.850;2024-01-11T08:06:28;81969.00;;;-1.40;68.47
64711;BME280;51139;45.626;6.850;2024-01-11T08:08:53;81962.94;;;-0.88;68.23
64711;BME280;51139;45.626;6.850;2024-01-11T08:11:19;81960.50;;;0.14;63.54
64711;BME280;51139;45.626;6.850;2024-01-11T08:13:44;81965.88;;;0.41;58.68
64711;BME280;51139;45.626;6.850;2024-01-11T08:16:18;81954.81;;;0.35;59.98
64711;BME280;51139;45.626;6.850;2024-01-11T08:18:43;81959.72;;;1.42;57.95
64711;BME280;51139;45.626;6.850;2024-01-11T08:21:09;81957.88;;;1.23;55.57
64711;BME280;51139;45.626;6.850;2024-01-11T08:23:37;81970.88;;;1.42;55.82
64711;BME280;51139;45.626;6.850;2024-01-11T08:26:04;81968.63;;;0.29;55.42
64711;BME280;51139;45.626;6.850;2024-01-11T08:28:30;81968.41;;;0.47;54.66
64711;BME280;51139;45.626;6.850;2024-01-11T08:30:55;81977.50;;;0.78;56.33
64711;BME280;51139;45.626;6.850;2024-01-11T08:33:21;81970.97;;;2.58;53.59
64711;BME280;51139;45.626;6.850;2024-01-11T08:35:46;81963.91;;;3.01;51.37
64711;BME280;51139;45.626;6.850;2024-01-11T08:38:12;81973.94;;;1.87;52.29
64711;BME280;51139;45.626;6.850;2024-01-11T08:40:37;81968.78;;;2.97;50.57
64711;BME280;51139;45.626;6.850;2024-01-11T08:43:03;81972.94;;;0.98;51.23
64711;BME280;51139;45.626;6.850;2024-01-11T08:45:28;81969.09;;;1.64;51.04
64711;BME280;51139;45.626;6.850;2024-01-11T08:47:56;81968.69;;;1.73;49.87
64711;BME280;51139;45.626;6.850;2024-01-11T08:50:21;81973.31;;;1.54;50.38
64711;BME280;51139;45.626;6.850;2024-01-11T08:52:47;81976.22;;;1.17;50.63
64711;BME280;51139;45.626;6.850;2024-01-11T08:55:13;81986.84;;;1.20;51.75
64711;BME280;51139;45.626;6.850;2024-01-11T08:57:39;81967.97;;;2.40;50.64
64711;BME280;51139;45.626;6.850;2024-01-11T09:00:05;81982.97;;;2.13;49.67
64711;BME280;51139;45.626;6.850;2024-01-11T09:02:33;81996.16;;;1.34;50.28
64711;BME280;51139;45.626;6.850;2024-01-11T09:04:58;81978.69;;;2.77;49.79
64711;BME280;51139;45.626;6.850;2024-01-11T09:07:24;81980.88;;;3.85;51.81
64711;BME280;51139;45.626;6.850;2024-01-11T09:09:49;81978.16;;;3.27;46.34
64711;BME280;51139;45.626;6.850;2024-01-11T09:12:15;81984.16;;;3.56;46.87
64711;BME280;51139;45.626;6.850;2024-01-11T09:14:40;81983.94;;;2.63;48.39
64711;BME280;51139;45.626;6.850;2024-01-11T09:17:05;81985.00;;;4.51;46.47
64711;BME280;51139;45.626;6.850;2024-01-11T09:19:34;81989.47;;;6.16;45.33
64711;BME280;51139;45.626;6.850;2024-01-11T09:21:59;81980.88;;;5.16;44.23
64711;BME280;51139;45.626;6.850;2024-01-11T09:24:25;81983.63;;;5.03;43.77
64711;BME280;51139;45.626;6.850;2024-01-11T09:26:50;81986.44;;;5.73;44.00
64711;BME280;51139;45.626;6.850;2024-01-11T09:29:16;81996.09;;;5.10;41.15
64711;BME280;51139;45.626;6.850;2024-01-11T09:31:41;81993.34;;;2.94;44.24
64711;BME280;51139;45.626;6.850;2024-01-11T09:34:07;81998.03;;;3.64;44.99
64711;BME280;51139;45.626;6.850;2024-01-11T09:36:33;81998.78;;;3.52;44.24
64711;BME280;51139;45.626;6.850;2024-01-11T09:38:58;82003.97;;;2.74;46.26
64711;BME280;51139;45.626;6.850;2024-01-11T09:41:24;81999.50;;;4.23;46.24
64711;BME280;51139;45.626;6.850;2024-01-11T09:43:54;81999.38;;;5.63;42.66
64711;BME280;51139;45.626;6.850;2024-01-11T09:46:20;82005.91;;;2.47;45.77
64711;BME280;51139;45.626;6.850;2024-01-11T09:48:46;81997.75;;;2.99;45.77
64711;BME280;51139;45.626;6.850;2024-01-11T09:51:13;82001.38;;;2.96;46.12
64711;BME280;51139;45.626;6.850;2024-01-11T09:53:40;81998.84;;;3.80;44.55
64711;BME280;51139;45.626;6.850;2024-01-11T09:56:10;82000.16;;;2.22;45.42
64711;BME280;51139;45.626;6.850;2024-01-11T09:58:36;82007.88;;;3.72;43.90
64711;BME280;51139;45.626;6.850;2024-01-11T10:01:02;81996.78;;;4.37;44.74
64711;BME280;51139;45.626;6.850;2024-01-11T10:03:28;81994.03;;;4.43;42.80
64711;BME280;51139;45.626;6.850;2024-01-11T10:05:57;81994.63;;;4.28;45.49
64711;BME280;51139;45.626;6.850;2024-01-11T10:08:23;81990.34;;;6.26;42.54
64711;BME280;51139;45.626;6.850;2024-01-11T10:10:48;82000.88;;;6.10;46.74
64711;BME280;51139;45.626;6.850;2024-01-11T10:13:15;81987.16;;;7.71;42.57
64711;BME280;51139;45.626;6.850;2024-01-11T10:15:42;81989.59;;;5.03;43.03
64711;BME280;51139;45.626;6.850;2024-01-11T10:18:07;81980.56;;;7.88;43.04
64711;BME280;51139;45.626;6.850;2024-01-11T10:20:33;81979.94;;;6.75;43.60
64711;BME280;51139;45.626;6.850;2024-01-11T10:22:58;81983.16;;;7.63;44.18
64711;BME280;51139;45.626;6.850;2024-01-11T10:25:24;81976.84;;;7.58;40.22
64711;BME280;51139;45.626;6.850;2024-01-11T10:27:50;81979.13;;;6.18;46.79
64711;BME280;51139;45.626;6.850;2024-01-11T10:30:17;81980.94;;;4.21;47.64
64711;BME280;51139;45.626;6.850;2024-01-11T10:32:46;81980.38;;;5.25;48.47
64711;BME280;51139;45.626;6.850;2024-01-11T10:35:12;81979.63;;;5.02;46.52
64711;BME280;51139;45.626;6.850;2024-01-11T10:37:38;81981.06;;;4.74;48.69
64711;BME280;51139;45.626;6.850;2024-01-11T10:40:06;81979.56;;;3.70;46.08
64711;BME280;51139;45.626;6.850;2024-01-11T10:42:45;81981.84;;;3.10;52.15
64711;BME280;51139;45.626;6.850;2024-01-11T10:45:16;81968.81;;;3.18;54.65
64711;BME280;51139;45.626;6.850;2024-01-11T10:48:14;81981.66;;;3.72;54.97
64711;BME280;51139;45.626;6.850;2024-01-11T10:50:44;81986.88;;;3.93;55.65
64711;BME280;51139;45.626;6.850;2024-01-11T10:55:41;81982.72;;;3.98;54.61
64711;BME280;51139;45.626;6.850;2024-01-11T10:58:07;81990.66;;;3.84;53.06
64711;BME280;51139;45.626;6.850;2024-01-11T11:00:35;81980.38;;;4.15;52.35
64711;BME280;51139;45.626;6.850;2024-01-11T11:03:00;81982.94;;;3.78;53.38
64711;BME280;51139;45.626;6.850;2024-01-11T11:05:28;81985.38;;;2.99;56.54
64711;BME280;51139;45.626;6.850;2024-01-11T11:07:55;81977.22;;;2.68;56.72
64711;BME280;51139;45.626;6.850;2024-01-11T11:10:21;81969.66;;;3.55;53.19
64711;BME280;51139;45.626;6.850;2024-01-11T11:12:48;81976.03;;;1.75;53.29
64711;BME280;51139;45.626;6.850;2024-01-11T11:15:14;81971.84;;;2.74;57.78
64711;BME280;51139;45.626;6.850;2024-01-11T11:17:41;81965.44;;;3.31;56.62
64711;BME280;51139;45.626;6.850;2024-01-11T11:20:07;81968.38;;;3.27;59.34
64711;BME280;51139;45.626;6.850;2024-01-11T11:22:34;81954.94;;;3.73;58.60
64711;BME280;51139;45.626;6.850;2024-01-11T11:25:10;81946.03;;;3.98;57.26
64711;BME280;51139;45.626;6.850;2024-01-11T11:27:36;81958.63;;;3.99;57.26
64711;BME280;51139;45.626;6.850;2024-01-11T11:30:03;81945.25;;;4.11;54.95
64711;BME280;51139;45.626;6.850;2024-01-11T11:32:36;81951.00;;;4.09;56.17
64711;BME280;51139;45.626;6.850;2024-01-11T11:35:03;81950.78;;;3.99;51.94
64711;BME280;51139;45.626;6.850;2024-01-11T11:37:29;81948.50;;;2.76;55.21
64711;BME280;51139;45.626;6.850;2024-01-11T11:39:55;81944.41;;;2.67;57.19
64711;BME280;51139;45.626;6.850;2024-01-11T11:42:22;81953.94;;;1.16;58.00
64711;BME280;51139;45.626;6.850;2024-01-11T11:44:49;81942.97;;;2.04;56.77
64711;BME280;51139;45.626;6.850;2024-01-11T11:47:22;81937.16;;;2.60;63.68
64711;BME280;51139;45.626;6.850;2024-01-11T11:50:10;81942.75;;;3.12;65.05
64711;BME280;51139;45.626;6.850;2024-01-11T11:52:40;81941.22;;;3.17;63.75
64711;BME280;51139;45.626;6.850;2024-01-11T11:55:07;81943.03;;;3.43;61.10
64711;BME280;51139;45.626;6.850;2024-01-11T11:57:35;81952.66;;;3.48;66.91
64711;BME280;51139;45.626;6.850;2024-01-11T12:00:02;81949.13;;;3.46;61.94
64711;BME280;51139;45.626;6.850;2024-01-11T12:02:31;81940.34;;;2.31;64.94
64711;BME280;51139;45.626;6.850;2024-01-11T12:04:57;81949.53;;;3.50;62.75
64711;BME280;51139;45.626;6.850;2024-01-11T12:07:23;81946.22;;;3.71;63.29
64711;BME280;51139;45.626;6.850;2024-01-11T12:09:49;81940.72;;;3.40;57.01
64711;BME280;51139;45.626;6.850;2024-01-11T12:12:16;81941.94;;;3.17;61.14
64711;BME280;51139;45.626;6.850;2024-01-11T12:14:43;81944.97;;;3.08;64.59
64711;BME280;51139;45.626;6.850;2024-01-11T12:17:08;81943.66;;;3.36;60.78
64711;BME280;51139;45.626;6.850;2024-01-11T12:19:34;81936.84;;;3.33;62.55
64711;BME280;51139;45.626;6.850;2024-01-11T12:21:59;81932.28;;;3.55;62.12
64711;BME280;51139;45.626;6.850;2024-01-11T12:24:25;81933.13;;;3.28;62.56
64711;BME280;51139;45.626;6.850;2024-01-11T12:26:52;81937.59;;;3.41;66.00
64711;BME280;51139;45.626;6.850;2024-01-11T12:29:19;81927.94;;;3.57;60.80
64711;BME280;51139;45.626;6.850;2024-01-11T12:31:44;81939.75;;;3.50;61.08
64711;BME280;51139;45.626;6.850;2024-01-11T12:34:11;81931.72;;;3.27;59.74
64711;BME280;51139;45.626;6.850;2024-01-11T12:36:37;81931.13;;;3.21;62.85
64711;BME280;51139;45.626;6.850;2024-01-11T12:39:03;81934.44;;;3.43;61.82
64711;BME280;51139;45.626;6.850;2024-01-11T12:41:30;81929.75;;;3.41;59.43
64711;BME280;51139;45.626;6.850;2024-01-11T12:43:56;81929.47;;;3.53;62.88
64711;BME280;51139;45.626;6.850;2024-01-11T12:46:22;81929.69;;;2.16;64.16
64711;BME280;51139;45.626;6.850;2024-01-11T12:48:48;81930.81;;;3.03;71.78
64711;BME280;51139;45.626;6.850;2024-01-11T12:51:16;81926.94;;;2.83;66.24
64711;BME280;51139;45.626;6.850;2024-01-11T12:53:45;81928.75;;;2.88;66.21
64711;BME280;51139;45.626;6.850;2024-01-11T12:56:10;81922.56;;;2.99;64.29
64711;BME280;51139;45.626;6.850;2024-01-11T12:58:39;81923.34;;;3.08;61.28
64711;BME280;51139;45.626;6.850;2024-01-11T13:01:05;81925.19;;;3.42;64.37
64711;BME280;51139;45.626;6.850;2024-01-11T13:03:33;81923.09;;;3.61;61.49
64711;BME280;51139;45.626;6.850;2024-01-11T13:05:59;81924.50;;;3.62;61.40
64711;BME280;51139;45.626;6.850;2024-01-11T13:08:25;81923.84;;;3.70;58.40
64711;BME280;51139;45.626;6.850;2024-01-11T13:10:52;81927.63;;;2.97;58.17
64711;BME280;51139;45.626;6.850;2024-01-11T13:13:17;81923.25;;;3.00;66.62
64711;BME280;51139;45.626;6.850;2024-01-11T13:15:43;81924.03;;;2.87;65.65
64711;BME280;51139;45.626;6.850;2024-01-11T13:18:09;81913.69;;;2.81;64.51
64711;BME280;51139;45.626;6.850;2024-01-11T13:20:34;81920.72;;;3.08;63.13
64711;BME280;51139;45.626;6.850;2024-01-11T13:23:15;81920.78;;;2.94;62.07
64711;BME280;51139;45.626;6.850;2024-01-11T13:25:44;81917.97;;;2.92;65.22
64711;BME280;51139;45.626;6.850;2024-01-11T13:28:10;81926.16;;;3.10;62.93
64711;BME280;51139;45.626;6.850;2024-01-11T13:30:41;81923.22;;;3.13;58.08
64711;BME280;51139;45.626;6.850;2024-01-11T13:33:07;81922.69;;;2.94;61.00
64711;BME280;51139;45.626;6.850;2024-01-11T13:35:40;81931.44;;;2.96;62.38
64711;BME280;51139;45.626;6.850;2024-01-11T13:38:08;81931.75;;;2.92;65.14
64711;BME280;51139;45.626;6.850;2024-01-11T13:40:33;81935.84;;;2.67;67.93
64711;BME280;51139;45.626;6.850;2024-01-11T13:42:59;81929.31;;;2.95;63.25
64711;BME280;51139;45.626;6.850;2024-01-11T13:45:25;81939.94;;;2.89;63.07
64711;BME280;51139;45.626;6.850;2024-01-11T13:47:51;81937.75;;;3.01;60.35
64711;BME280;51139;45.626;6.850;2024-01-11T13:50:19;81949.44;;;2.65;61.10
64711;BME280;51139;45.626;6.850;2024-01-11T13:52:44;81939.06;;;2.73;62.20
64711;BME280;51139;45.626;6.850;2024-01-11T13:55:10;81948.16;;;2.58;59.90
64711;BME280;51139;45.626;6.850;2024-01-11T13:57:37;81941.72;;;2.59;59.73
64711;BME280;51139;45.626;6.850;2024-01-11T14:00:03;81944.91;;;2.66;65.05
64711;BME280;51139;45.626;6.850;2024-01-11T14:02:29;81943.59;;;2.59;60.93
64711;BME280;51139;45.626;6.850;2024-01-11T14:04:54;81953.22;;;2.43;64.64
64711;BME280;51139;45.626;6.850;2024-01-11T14:07:19;81946.25;;;2.45;62.01
64711;BME280;51139;45.626;6.850;2024-01-11T14:09:45;81952.03;;;2.79;60.80
64711;BME280;51139;45.626;6.850;2024-01-11T14:12:11;81947.91;;;2.70;61.37
64711;BME280;51139;45.626;6.850;2024-01-11T14:14:36;81948.00;;;2.77;67.45
64711;BME280;51139;45.626;6.850;2024-01-11T14:17:02;81955.34;;;2.79;66.26
64711;BME280;51139;45.626;6.850;2024-01-11T14:19:27;81957.53;;;2.88;64.52
64711;BME280;51139;45.626;6.850;2024-01-11T14:21:53;81955.06;;;2.69;62.81
64711;BME280;51139;45.626;6.850;2024-01-11T14:24:19;81953.56;;;2.60;61.55
64711;BME280;51139;45.626;6.850;2024-01-11T14:26:44;81960.91;;;2.62;63.55
64711;BME280;51139;45.626;6.850;2024-01-11T14:29:10;81948.78;;;2.86;67.02
64711;BME280;51139;45.626;6.850;2024-01-11T14:31:36;81954.34;;;2.69;71.55
64711;BME280;51139;45.626;6.850;2024-01-11T14:34:02;81956.84;;;2.40;66.75
64711;BME280;51139;45.626;6.850;2024-01-11T14:36:28;81950.31;;;2.19;70.84
64711;BME280;51139;45.626;6.850;2024-01-11T14:38:53;81953.59;;;2.47;80.92
64711;BME280;51139;45.626;6.850;2024-01-11T14:41:18;81952.84;;;2.25;77.96
64711;BME280;51139;45.626;6.850;2024-01-11T14:43:44;81947.72;;;2.68;74.00
64711;BME280;51139;45.626;6.850;2024-01-11T14:46:11;81950.09;;;2.31;70.56
64711;BME280;51139;45.626;6.850;2024-01-11T14:48:37;81954.03;;;2.11;69.31
64711;BME280;51139;45.626;6.850;2024-01-11T14:51:02;81954.44;;;2.15;69.76
64711;BME280;51139;45.626;6.850;2024-01-11T14:53:30;81960.06;;;2.32;69.92
64711;BME280;51139;45.626;6.850;2024-01-11T14:55:55;81965.50;;;2.35;71.02
64711;BME280;51139;45.626;6.850;2024-01-11T14:58:21;81963.88;;;2.18;68.05
64711;BME280;51139;45.626;6.850;2024-01-11T15:00:47;81967.06;;;2.51;71.41
64711;BME280;51139;45.626;6.850;2024-01-11T15:03:12;81964.88;;;1.74;77.23
64711;BME280;51139;45.626;6.850;2024-01-11T15:05:37;81968.09;;;1.81;85.71
64711;BME280;51139;45.626;6.850;2024-01-11T15:08:03;81966.78;;;1.74;83.87
64711;BME280;51139;45.626;6.850;2024-01-11T15:10:30;81970.31;;;2.30;79.57
64711;BME280;51139;45.626;6.850;2024-01-11T15:12:55;81971.41;;;2.35;75.11
